Jansen, NE (68377)

7:13 AM CDT on April 25, 2015 (GMT -0500)
APRSWXNET | | Change Station
CLOSE
Current Station
Personal Weather Station
Location: Plymouth, NE
Elevation: 1430 ft
Nearby Weather Stations

Elev 1430 ft 40.31 °N, 97.03 °W | Updated 36 minutes ago

Overcast
Overcast
54 °F
Feels Like 54 °F
N
7
Wind Variable Wind from North
Gusts 11.0 mph

Today
High -- | Low -- °F
--% Chance of Precip.
Yesterday
High -- | Low -- °F
Precip. -- in
6:35 AM 8:16 PM
Waxing Crescent, 45% visible
Pressure 29.43 in
Visibility 5.0 miles
Clouds Overcast 500 ft
Dew Point 53 °F
Humidity 97%
Rainfall in
Snow Depth Not available.
UV 0 out of 12
Pollen 10.50 out of 12
Air Quality Not available.
Flu Activity Local Activity
METAR KBIE 251155Z AUTO 03009KT 5SM -DZ OVC005 13/12 A2943 RMK AO2 P0006 60010 70039 T01250120 10140 20125 401700125

More Conditions Fewer Conditions

Pressure 29.43 in
Visibility 5.0 miles
Clouds Overcast 500 ft
Dew Point 53 °F
Humidity 97%
Rainfall in
Snow Depth Not available.
UV 0 out of 12
Pollen 10.50 out of 12
Air Quality Not available.
Flu Activity Local Activity
METAR KBIE 251155Z AUTO 03009KT 5SM -DZ OVC005 13/12 A2943 RMK AO2 P0006 60010 70039 T01250120 10140 20125 401700125

More Conditions Fewer Conditions

10-Day Weather Forecast

Almanac

Astronomy

Apr. 25, 2015 Rise Set
Actual Time
Civil Twilight
Nautical Twilight
Astronomical Twilight
Moon
Length of Visible Light
Length of Day
Tomorrow will be .
, % of the Moon is Illuminated

Today's Extremes

State Highs State Lows

Community

WunderPhotos

Upload Photos

1,816,643 photos uploaded!

WunderBlogs® & News

Nearby

Air Quality

  Air Quality AQ Index Pollutant
Not available.

Snow Depth

Station Depth Elevation

Earthquake Activity

City Distance Mag. Time & Date
Minimum magnitude displayed is 2.5.

Coastal Water Temperatures

Place Temperature

Stations

Nearby Weather Stations

Station Location Temp. Windchill Dew Point Humidity Wind Precip. Elev Updated Type